Terminal Aerodrome Forecast
Issued by NWS Caribou, ME

Home | Current Version | Previous Version | Text Only | Print | Product List | Glossary On
Versions: 1 2 3 4 5 6 7 8 9 10 11 12 13 14 15 16 17
327
FTUS41 KCAR 240256 AAC
TAFBGR
TAF AMD
KBGR 240256Z 2403/2424 21006KT 2SM BR SCT003 WS020/23040KT
     FM240400 23006KT 2SM BR BKN007
     FM241500 VRB03KT 4SM BR SCT003
     FM241900 19003KT 3SM -RA OVC015=

USA.gov is the U.S. government's official web portal to all federal, state and local government web resources and services.